Miranda — C6CR7 — position and weather

sailwx.info

Track history (hours):
 
Tides and Currents Weather Stations Pressure Air Temp Water Temp Dewpoint Dewpoint Depression Visibility Wind Speed Wind Dir Waves Ship Positions

Miranda

Last reported at 2018-May-10 09:58 UTC. Time now 2018-Jun-18 05:46 UTC.
Position S 07°46' E 012°13'.
Warning: this ship's position is 38 days out of date.

Length 37 m; draft 3 m.

Type: Other ship. MMSI: 311000554.

Date/timePositionNaut miles runAvg speedWind from/ knotsBaromVisibWave heightAir tempDewpointWater temp
2018-May-10 09:58S 07°46' E 012°13'2 3.6
2018-May-10 09:30S 07°45' E 012°13'2 3.2
2018-May-10 09:00S 07°43' E 012°13'2 3.2
2018-May-10 08:30S 07°41' E 012°13'2 3.3
2018-May-10 08:00S 07°40' E 012°13'2 3.8
2018-May-10 07:28S 07°38' E 012°14'3 7.3
2018-May-10 07:00S 07°34' E 012°14'4 8.0
2018-May-10 06:30S 07°31' E 012°12'4 8.0
2018-May-10 06:00S 07°27' E 012°11'2 4.6
2018-May-10 05:30S 07°26' E 012°09'2 4.1
2018-May-10 05:00S 07°26' E 012°07'2 4.0
2018-May-10 04:30S 07°28' E 012°07'2 3.6
2018-May-10 04:00S 07°29' E 012°07'2 3.9
2018-May-10 03:30S 07°31' E 012°09'2 4.2
2018-May-10 03:00S 07°32' E 012°11'2 4.2
2018-May-10 02:30S 07°32' E 012°13'2 4.2
2018-May-10 02:00S 07°33' E 012°15'2 4.1
2018-May-10 01:30S 07°31' E 012°17'2 3.4
2018-May-10 01:00S 07°30' E 012°17'2 4.1
2018-May-10 00:30S 07°32' E 012°18'3 6.3
2018-May-10 00:00S 07°30' E 012°15'4 8.6
2018-May-09 23:30S 07°27' E 012°12'4 7.7
2018-May-09 22:58S 07°24' E 012°09'2 4.5
2018-May-09 22:30S 07°24' E 012°07'3 4.9
2018-May-09 21:59S 07°26' E 012°06'2 4.9
2018-May-09 21:30S 07°28' E 012°07'2 4.1
2018-May-09 21:00S 07°30' E 012°09'2 4.0
2018-May-09 20:30S 07°31' E 012°10'2 4.7
2018-May-09 20:00S 07°33' E 012°11'2 3.3
2018-May-09 19:30S 07°34' E 012°13'2 4.9
2018-May-09 19:00S 07°36' E 012°14'2 4.9
2018-May-09 18:30S 07°38' E 012°15'3 5.1
2018-May-09 18:00S 07°39' E 012°18'2 4.8
2018-May-09 17:30S 07°37' E 012°20'2 4.6
2018-May-09 16:59S 07°35' E 012°19'2 4.7
2018-May-09 16:30S 07°33' E 012°18'3 5.1
2018-May-09 16:00S 07°31' E 012°16'3 5.0
2018-May-09 15:30S 07°29' E 012°14'3 5.0
2018-May-09 15:00S 07°28' E 012°13'3 5.2
2018-May-09 14:27S 07°26' E 012°10'2 4.6
2018-May-09 14:00S 07°25' E 012°08'2 4.3
2018-May-09 13:30S 07°27' E 012°07'2 4.3
2018-May-09 13:00S 07°29' E 012°07'2 4.5
2018-May-09 12:30S 07°31' E 012°08'2 4.4
2018-May-09 12:00S 07°33' E 012°09'2 4.2
2018-May-09 11:30S 07°34' E 012°11'2 4.1
2018-May-09 11:00S 07°36' E 012°12'2 4.4
2018-May-09 10:29S 07°38' E 012°13'2 4.3
2018-May-09 09:59S 07°39' E 012°15'3 4.1
2018-May-09 09:22S 07°41' E 012°17'1 2.3
2018-May-09 09:00S 07°40' E 012°17'2 3.4
2018-May-09 08:22S 07°39' E 012°19'2 6.7
2018-May-09 08:00S 07°37' E 012°19'4 8.1
2018-May-09 07:30S 07°33' E 012°18'4 7.9
2018-May-09 07:00S 07°30' E 012°15'3 6.6
2018-May-09 06:30S 07°28' E 012°13'3 5.2
2018-May-09 06:00S 07°26' E 012°11'3 4.9
2018-May-09 05:30S 07°26' E 012°08'2 4.7
2018-May-09 05:01S 07°27' E 012°07'2 4.5
2018-May-09 04:30S 07°30' E 012°07'2 4.5
2018-May-09 04:00S 07°32' E 012°08'2 4.6
2018-May-09 03:31S 07°33' E 012°10'2 4.2
2018-May-09 03:00S 07°35' E 012°11'2 4.1
2018-May-09 02:30S 07°37' E 012°12'2 4.2
2018-May-09 02:00S 07°38' E 012°14'2 4.1
2018-May-09 01:30S 07°39' E 012°16'2 4.4
2018-May-09 01:00S 07°38' E 012°18'2 4.2
2018-May-09 00:29S 07°36' E 012°18'2 4.6
2018-May-08 23:58S 07°34' E 012°17'7 0.1
2018-May-06 22:06S 07°27' E 012°15'1 5.3
2018-May-06 22:00S 07°28' E 012°16'2 4.7
2018-May-06 21:30S 07°30' E 012°17'2 4.7
2018-May-06 20:59S 07°32' E 012°18'2 4.2
2018-May-06 20:30S 07°33' E 012°20'2 3.4
2018-May-06 20:00S 07°35' E 012°21'2 4.6
2018-May-06 19:30S 07°36' E 012°22'2 4.9
2018-May-06 19:00S 07°36' E 012°25'2 4.8
2018-May-06 18:30S 07°34' E 012°26'2 4.4
2018-May-06 18:00S 07°32' E 012°26'2 4.4
2018-May-06 17:30S 07°31' E 012°24'2 4.6
2018-May-06 17:00S 07°31' E 012°21'2 4.6
2018-May-06 16:30S 07°31' E 012°19'2 4.4
2018-May-06 16:00S 07°29' E 012°18'2 4.5
2018-May-06 15:30S 07°28' E 012°17'2 4.6
2018-May-06 15:00S 07°26' E 012°15'2 4.6
2018-May-06 14:30S 07°24' E 012°14'2 4.7
2018-May-06 13:59S 07°22' E 012°13'3 4.4
2018-May-06 13:12S 07°18' E 012°12'1 4.3
2018-May-06 13:00S 07°18' E 012°11'3 4.8
2018-May-06 12:28S 07°17' E 012°09'2 4.7
2018-May-06 12:00S 07°19' E 012°07'2 4.1
2018-May-06 11:29S 07°21' E 012°08'3 4.1
2018-May-06 10:49S 07°22' E 012°10'1 3.6
2018-May-06 10:30S 07°23' E 012°11'2 3.6
2018-May-06 10:00S 07°24' E 012°13'2 3.4
2018-May-06 09:26S 07°26' E 012°14'2 4.2
2018-May-06 09:00S 07°27' E 012°15'3 5.2
2018-May-06 08:27S 07°29' E 012°17'2 4.5
2018-May-06 07:59S 07°31' E 012°18'2 4.4
2018-May-06 07:30S 07°33' E 012°19'3 4.3
2018-May-06 06:52S 07°35' E 012°20'2 4.4
2018-May-06 06:30S 07°37' E 012°20'2 4.3
2018-May-06 05:59S 07°38' E 012°22'2 5.3
2018-May-06 05:30S 07°37' E 012°24'3 5.4
2018-May-06 05:01S 07°34' E 012°25'3 5.1
2018-May-06 04:30S 07°32' E 012°23'3 5.0
2018-May-06 03:58S 07°32' E 012°20'2 4.8
2018-May-06 03:30S 07°31' E 012°18'2 4.7
2018-May-06 03:00S 07°29' E 012°17'2 4.6
2018-May-06 02:30S 07°27' E 012°16'2 4.7
2018-May-06 02:00S 07°25' E 012°14'2 4.6
2018-May-06 01:30S 07°23' E 012°13'2 4.6
2018-May-06 00:58S 07°21' E 012°12'2 4.6
2018-May-06 00:30S 07°19' E 012°11'3 4.5
2018-May-05 23:48S 07°17' E 012°09'3 4.4
2018-May-05 23:14S 07°19' E 012°07'1 4.1
2018-May-05 22:55S 07°21' E 012°07'2 4.0
2018-May-05 22:30S 07°22' E 012°09'2 4.2
2018-May-05 21:58S 07°23' E 012°11'2 4.5
2018-May-05 21:30S 07°24' E 012°12'2 4.8
2018-May-05 21:00S 07°26' E 012°14'2 4.7
2018-May-05 20:30S 07°28' E 012°15'2 4.7
2018-May-05 20:00S 07°30' E 012°17'2 4.6
2018-May-05 19:30S 07°32' E 012°18'2 4.5
2018-May-05 19:00S 07°33' E 012°19'2 4.5
2018-May-05 18:30S 07°35' E 012°20'2 4.5
2018-May-05 18:00S 07°37' E 012°22'3 5.5
2018-May-05 17:30S 07°37' E 012°25'3 4.8
2018-May-05 16:51S 07°34' E 012°26'2 4.7
2018-May-05 16:30S 07°33' E 012°25'2 4.3
2018-May-05 15:59S 07°32' E 012°23'3 4.1
2018-May-05 15:18S 07°32' E 012°21'1 4.4
2018-May-05 15:00S 07°32' E 012°19'2 4.4
2018-May-05 14:30S 07°31' E 012°18'2 4.1
2018-May-05 14:00S 07°29' E 012°17'2 4.2
2018-May-05 13:30S 07°27' E 012°16'2 4.2
2018-May-05 13:00S 07°25' E 012°14'2 4.1
2018-May-05 12:30S 07°24' E 012°13'2 4.2
2018-May-05 12:00S 07°22' E 012°12'1 2.5
2018-May-05 11:30S 07°23' E 012°11'4 6.9
2018-May-05 11:00S 07°25' E 012°13'2 3.7
2018-May-05 10:30S 07°24' E 012°12'3 5.1
2018-May-05 10:00S 07°22' E 012°11'3 6.9
2018-May-05 09:30S 07°20' E 012°08'4 7.0
2018-May-05 08:57S 07°17' E 012°05'1 1.2
2018-May-05 08:00S 07°16' E 012°05'2 3.5
2018-May-05 07:30S 07°18' E 012°05'4 5.0
2018-May-05 06:44S 07°20' E 012°08'1 5.5
2018-May-05 06:30S 07°21' E 012°09'2 4.3
2018-May-05 06:00S 07°22' E 012°11'2 4.5
2018-May-05 05:30S 07°24' E 012°12'2 4.5
2018-May-05 05:00S 07°26' E 012°13'2 5.0
2018-May-05 04:30S 07°28' E 012°14'3 4.8
2018-May-05 03:59S 07°30' E 012°16'2 3.4
2018-May-05 03:30S 07°32' E 012°17'2 4.9
2018-May-05 03:00S 07°34' E 012°18'2 4.6
2018-May-05 02:30S 07°36' E 012°19'2 3.9
2018-May-05 02:00S 07°37' E 012°21'4 3.9
2018-May-05 01:03S 07°36' E 012°24'1 5.7
2018-May-05 00:57S 07°35' E 012°25'3 4.7
2018-May-05 00:23S 07°33' E 012°24'2 4.2
2018-May-04 23:57S 07°33' E 012°22'2 4.9
2018-May-04 23:29S 07°32' E 012°20'2 4.4
2018-May-04 23:00S 07°31' E 012°19'2 3.5
2018-May-04 22:30S 07°29' E 012°18'3 4.3
2018-May-04 21:51S 07°27' E 012°16'2 4.5
2018-May-04 21:30S 07°26' E 012°15'2 4.0
2018-May-04 21:00S 07°24' E 012°14'8 4.7
2018-May-04 19:16S 07°17' E 012°10'1 4.1
2018-May-04 18:57S 07°17' E 012°09'2 4.4
2018-May-04 18:27S 07°18' E 012°07'2 3.6
2018-May-04 17:54S 07°19' E 012°09'2 4.3
2018-May-04 17:20S 07°20' E 012°11'2 5.0
2018-May-04 17:00S 07°22' E 012°12'2 4.5
2018-May-04 16:29S 07°24' E 012°13'2 4.6
2018-May-04 16:00S 07°25' E 012°15'2 4.1
2018-May-04 15:30S 07°27' E 012°16'2 4.1
2018-May-04 15:00S 07°29' E 012°17'2 4.1
2018-May-04 14:30S 07°31' E 012°18'2 3.9
2018-May-04 14:00S 07°32' E 012°19'2 3.9
2018-May-04 13:30S 07°34' E 012°20'2 4.6
2018-May-04 13:00S 07°36' E 012°21'2 4.5
2018-May-04 12:30S 07°38' E 012°22'2 4.5
2018-May-04 11:59S 07°40' E 012°23'4 4.2
2018-May-04 11:08S 07°44' E 012°24'1 3.9
2018-May-04 10:53S 07°45' E 012°24'5 4.3
2018-May-04 09:37S 07°50' E 012°22'1 4.5
2018-May-04 09:30S 07°49' E 012°21'3 5.0
2018-May-04 08:59S 07°47' E 012°21'4 7.4
2018-May-04 08:30S 07°43' E 012°20'4 7.2
2018-May-04 08:00S 07°40' E 012°19'3 6.7
2018-May-04 07:30S 07°37' E 012°17'1 2.5
2018-May-04 07:00S 07°38' E 012°17'2 4.3
2018-May-04 06:27S 07°39' E 012°19'2 4.9
2018-May-04 06:00S 07°38' E 012°22'2 4.8
2018-May-04 05:29S 07°38' E 012°24'3 4.7
2018-May-04 04:57S 07°37' E 012°26'2 5.0
2018-May-04 04:27S 07°37' E 012°29'2 4.3
2018-May-04 04:00S 07°36' E 012°31'7 1.7
2018-May-03 23:57S 07°42' E 012°27'2 4.7
2018-May-03 23:30S 07°42' E 012°25'2 4.5
2018-May-03 23:00S 07°42' E 012°22'3 4.9
2018-May-03 22:28S 07°42' E 012°20'2 4.7
2018-May-03 21:59S 07°42' E 012°17'2 4.6
2018-May-03 21:30S 07°42' E 012°15'2 4.6
2018-May-03 21:00S 07°41' E 012°13'3 5.6
2018-May-03 20:29S 07°40' E 012°10'3 5.3
2018-May-03 19:59S 07°42' E 012°08'6 4.7
2018-May-03 18:41S 07°45' E 012°03'1 5.0
2018-May-03 18:30S 07°46' E 012°03'2 4.7
2018-May-03 18:00S 07°48' E 012°01'57 2.9
2018-May-02 22:26S 07°43' E 011°04'  
Track history (hours):
 
Tides and Currents Weather Stations Pressure Air Temp Water Temp Dewpoint Dewpoint Depression Visibility Wind Speed Wind Dir Waves Ship Positions

Miranda

Last reported at 2018-May-10 09:58 UTC. Time now 2018-Jun-18 05:46 UTC.
Position S 07°46' E 012°13'.
Warning: this ship's position is 38 days out of date.

Length 37 m; draft 3 m.

Type: Other ship. MMSI: 311000554.

Date/timePositionNaut miles runAvg speedWind from/ knotsBaromVisibWave heightAir tempDewpointWater temp
2018-May-10 09:58S 07°46' E 012°13'2 3.6
2018-May-10 09:30S 07°45' E 012°13'2 3.2
2018-May-10 09:00S 07°43' E 012°13'2 3.2
2018-May-10 08:30S 07°41' E 012°13'2 3.3
2018-May-10 08:00S 07°40' E 012°13'2 3.8
2018-May-10 07:28S 07°38' E 012°14'3 7.3
2018-May-10 07:00S 07°34' E 012°14'4 8.0
2018-May-10 06:30S 07°31' E 012°12'4 8.0
2018-May-10 06:00S 07°27' E 012°11'2 4.6
2018-May-10 05:30S 07°26' E 012°09'2 4.1
2018-May-10 05:00S 07°26' E 012°07'2 4.0
2018-May-10 04:30S 07°28' E 012°07'2 3.6
2018-May-10 04:00S 07°29' E 012°07'2 3.9
2018-May-10 03:30S 07°31' E 012°09'2 4.2
2018-May-10 03:00S 07°32' E 012°11'2 4.2
2018-May-10 02:30S 07°32' E 012°13'2 4.2
2018-May-10 02:00S 07°33' E 012°15'2 4.1
2018-May-10 01:30S 07°31' E 012°17'2 3.4
2018-May-10 01:00S 07°30' E 012°17'2 4.1
2018-May-10 00:30S 07°32' E 012°18'3 6.3
2018-May-10 00:00S 07°30' E 012°15'4 8.6
2018-May-09 23:30S 07°27' E 012°12'4 7.7
2018-May-09 22:58S 07°24' E 012°09'2 4.5
2018-May-09 22:30S 07°24' E 012°07'3 4.9
2018-May-09 21:59S 07°26' E 012°06'2 4.9
2018-May-09 21:30S 07°28' E 012°07'2 4.1
2018-May-09 21:00S 07°30' E 012°09'2 4.0
2018-May-09 20:30S 07°31' E 012°10'2 4.7
2018-May-09 20:00S 07°33' E 012°11'2 3.3
2018-May-09 19:30S 07°34' E 012°13'2 4.9
2018-May-09 19:00S 07°36' E 012°14'2 4.9
2018-May-09 18:30S 07°38' E 012°15'3 5.1
2018-May-09 18:00S 07°39' E 012°18'2 4.8
2018-May-09 17:30S 07°37' E 012°20'2 4.6
2018-May-09 16:59S 07°35' E 012°19'2 4.7
2018-May-09 16:30S 07°33' E 012°18'3 5.1
2018-May-09 16:00S 07°31' E 012°16'3 5.0
2018-May-09 15:30S 07°29' E 012°14'3 5.0
2018-May-09 15:00S 07°28' E 012°13'3 5.2
2018-May-09 14:27S 07°26' E 012°10'2 4.6
2018-May-09 14:00S 07°25' E 012°08'2 4.3
2018-May-09 13:30S 07°27' E 012°07'2 4.3
2018-May-09 13:00S 07°29' E 012°07'2 4.5
2018-May-09 12:30S 07°31' E 012°08'2 4.4
2018-May-09 12:00S 07°33' E 012°09'2 4.2
2018-May-09 11:30S 07°34' E 012°11'2 4.1
2018-May-09 11:00S 07°36' E 012°12'2 4.4
2018-May-09 10:29S 07°38' E 012°13'2 4.3
2018-May-09 09:59S 07°39' E 012°15'3 4.1
2018-May-09 09:22S 07°41' E 012°17'1 2.3
2018-May-09 09:00S 07°40' E 012°17'2 3.4
2018-May-09 08:22S 07°39' E 012°19'2 6.7
2018-May-09 08:00S 07°37' E 012°19'4 8.1
2018-May-09 07:30S 07°33' E 012°18'4 7.9
2018-May-09 07:00S 07°30' E 012°15'3 6.6
2018-May-09 06:30S 07°28' E 012°13'3 5.2
2018-May-09 06:00S 07°26' E 012°11'3 4.9
2018-May-09 05:30S 07°26' E 012°08'2 4.7
2018-May-09 05:01S 07°27' E 012°07'2 4.5
2018-May-09 04:30S 07°30' E 012°07'2 4.5
2018-May-09 04:00S 07°32' E 012°08'2 4.6
2018-May-09 03:31S 07°33' E 012°10'2 4.2
2018-May-09 03:00S 07°35' E 012°11'2 4.1
2018-May-09 02:30S 07°37' E 012°12'2 4.2
2018-May-09 02:00S 07°38' E 012°14'2 4.1
2018-May-09 01:30S 07°39' E 012°16'2 4.4
2018-May-09 01:00S 07°38' E 012°18'2 4.2
2018-May-09 00:29S 07°36' E 012°18'2 4.6
2018-May-08 23:58S 07°34' E 012°17'7 0.1
2018-May-06 22:06S 07°27' E 012°15'1 5.3
2018-May-06 22:00S 07°28' E 012°16'2 4.7
2018-May-06 21:30S 07°30' E 012°17'2 4.7
2018-May-06 20:59S 07°32' E 012°18'2 4.2
2018-May-06 20:30S 07°33' E 012°20'2 3.4
2018-May-06 20:00S 07°35' E 012°21'2 4.6
2018-May-06 19:30S 07°36' E 012°22'2 4.9
2018-May-06 19:00S 07°36' E 012°25'2 4.8
2018-May-06 18:30S 07°34' E 012°26'2 4.4
2018-May-06 18:00S 07°32' E 012°26'2 4.4
2018-May-06 17:30S 07°31' E 012°24'2 4.6
2018-May-06 17:00S 07°31' E 012°21'2 4.6
2018-May-06 16:30S 07°31' E 012°19'2 4.4
2018-May-06 16:00S 07°29' E 012°18'2 4.5
2018-May-06 15:30S 07°28' E 012°17'2 4.6
2018-May-06 15:00S 07°26' E 012°15'2 4.6
2018-May-06 14:30S 07°24' E 012°14'2 4.7
2018-May-06 13:59S 07°22' E 012°13'3 4.4
2018-May-06 13:12S 07°18' E 012°12'1 4.3
2018-May-06 13:00S 07°18' E 012°11'3 4.8
2018-May-06 12:28S 07°17' E 012°09'2 4.7
2018-May-06 12:00S 07°19' E 012°07'2 4.1
2018-May-06 11:29S 07°21' E 012°08'3 4.1
2018-May-06 10:49S 07°22' E 012°10'1 3.6
2018-May-06 10:30S 07°23' E 012°11'2 3.6
2018-May-06 10:00S 07°24' E 012°13'2 3.4
2018-May-06 09:26S 07°26' E 012°14'2 4.2
2018-May-06 09:00S 07°27' E 012°15'3 5.2
2018-May-06 08:27S 07°29' E 012°17'2 4.5
2018-May-06 07:59S 07°31' E 012°18'2 4.4
2018-May-06 07:30S 07°33' E 012°19'3 4.3
2018-May-06 06:52S 07°35' E 012°20'2 4.4
2018-May-06 06:30S 07°37' E 012°20'2 4.3
2018-May-06 05:59S 07°38' E 012°22'2 5.3
2018-May-06 05:30S 07°37' E 012°24'3 5.4
2018-May-06 05:01S 07°34' E 012°25'3 5.1
2018-May-06 04:30S 07°32' E 012°23'3 5.0
2018-May-06 03:58S 07°32' E 012°20'2 4.8
2018-May-06 03:30S 07°31' E 012°18'2 4.7
2018-May-06 03:00S 07°29' E 012°17'2 4.6
2018-May-06 02:30S 07°27' E 012°16'2 4.7
2018-May-06 02:00S 07°25' E 012°14'2 4.6
2018-May-06 01:30S 07°23' E 012°13'2 4.6
2018-May-06 00:58S 07°21' E 012°12'2 4.6
2018-May-06 00:30S 07°19' E 012°11'3 4.5
2018-May-05 23:48S 07°17' E 012°09'3 4.4
2018-May-05 23:14S 07°19' E 012°07'1 4.1
2018-May-05 22:55S 07°21' E 012°07'2 4.0
2018-May-05 22:30S 07°22' E 012°09'2 4.2
2018-May-05 21:58S 07°23' E 012°11'2 4.5
2018-May-05 21:30S 07°24' E 012°12'2 4.8
2018-May-05 21:00S 07°26' E 012°14'2 4.7
2018-May-05 20:30S 07°28' E 012°15'2 4.7
2018-May-05 20:00S 07°30' E 012°17'2 4.6
2018-May-05 19:30S 07°32' E 012°18'2 4.5
2018-May-05 19:00S 07°33' E 012°19'2 4.5
2018-May-05 18:30S 07°35' E 012°20'2 4.5
2018-May-05 18:00S 07°37' E 012°22'3 5.5
2018-May-05 17:30S 07°37' E 012°25'3 4.8
2018-May-05 16:51S 07°34' E 012°26'2 4.7
2018-May-05 16:30S 07°33' E 012°25'2 4.3
2018-May-05 15:59S 07°32' E 012°23'3 4.1
2018-May-05 15:18S 07°32' E 012°21'1 4.4
2018-May-05 15:00S 07°32' E 012°19'2 4.4
2018-May-05 14:30S 07°31' E 012°18'2 4.1
2018-May-05 14:00S 07°29' E 012°17'2 4.2
2018-May-05 13:30S 07°27' E 012°16'2 4.2
2018-May-05 13:00S 07°25' E 012°14'2 4.1
2018-May-05 12:30S 07°24' E 012°13'2 4.2
2018-May-05 12:00S 07°22' E 012°12'1 2.5
2018-May-05 11:30S 07°23' E 012°11'4 6.9
2018-May-05 11:00S 07°25' E 012°13'2 3.7
2018-May-05 10:30S 07°24' E 012°12'3 5.1
2018-May-05 10:00S 07°22' E 012°11'3 6.9
2018-May-05 09:30S 07°20' E 012°08'4 7.0
2018-May-05 08:57S 07°17' E 012°05'1 1.2
2018-May-05 08:00S 07°16' E 012°05'2 3.5
2018-May-05 07:30S 07°18' E 012°05'4 5.0
2018-May-05 06:44S 07°20' E 012°08'1 5.5
2018-May-05 06:30S 07°21' E 012°09'2 4.3
2018-May-05 06:00S 07°22' E 012°11'2 4.5
2018-May-05 05:30S 07°24' E 012°12'2 4.5
2018-May-05 05:00S 07°26' E 012°13'2 5.0
2018-May-05 04:30S 07°28' E 012°14'3 4.8
2018-May-05 03:59S 07°30' E 012°16'2 3.4
2018-May-05 03:30S 07°32' E 012°17'2 4.9
2018-May-05 03:00S 07°34' E 012°18'2 4.6
2018-May-05 02:30S 07°36' E 012°19'2 3.9
2018-May-05 02:00S 07°37' E 012°21'4 3.9
2018-May-05 01:03S 07°36' E 012°24'1 5.7
2018-May-05 00:57S 07°35' E 012°25'3 4.7
2018-May-05 00:23S 07°33' E 012°24'2 4.2
2018-May-04 23:57S 07°33' E 012°22'2 4.9
2018-May-04 23:29S 07°32' E 012°20'2 4.4
2018-May-04 23:00S 07°31' E 012°19'2 3.5
2018-May-04 22:30S 07°29' E 012°18'3 4.3
2018-May-04 21:51S 07°27' E 012°16'2 4.5
2018-May-04 21:30S 07°26' E 012°15'2 4.0
2018-May-04 21:00S 07°24' E 012°14'8 4.7
2018-May-04 19:16S 07°17' E 012°10'1 4.1
2018-May-04 18:57S 07°17' E 012°09'2 4.4
2018-May-04 18:27S 07°18' E 012°07'2 3.6
2018-May-04 17:54S 07°19' E 012°09'2 4.3
2018-May-04 17:20S 07°20' E 012°11'2 5.0
2018-May-04 17:00S 07°22' E 012°12'2 4.5
2018-May-04 16:29S 07°24' E 012°13'2 4.6
2018-May-04 16:00S 07°25' E 012°15'2 4.1
2018-May-04 15:30S 07°27' E 012°16'2 4.1
2018-May-04 15:00S 07°29' E 012°17'2 4.1
2018-May-04 14:30S 07°31' E 012°18'2 3.9
2018-May-04 14:00S 07°32' E 012°19'2 3.9
2018-May-04 13:30S 07°34' E 012°20'2 4.6
2018-May-04 13:00S 07°36' E 012°21'2 4.5
2018-May-04 12:30S 07°38' E 012°22'2 4.5
2018-May-04 11:59S 07°40' E 012°23'4 4.2
2018-May-04 11:08S 07°44' E 012°24'1 3.9
2018-May-04 10:53S 07°45' E 012°24'5 4.3
2018-May-04 09:37S 07°50' E 012°22'1 4.5
2018-May-04 09:30S 07°49' E 012°21'3 5.0
2018-May-04 08:59S 07°47' E 012°21'4 7.4
2018-May-04 08:30S 07°43' E 012°20'4 7.2
2018-May-04 08:00S 07°40' E 012°19'3 6.7
2018-May-04 07:30S 07°37' E 012°17'1 2.5
2018-May-04 07:00S 07°38' E 012°17'2 4.3
2018-May-04 06:27S 07°39' E 012°19'2 4.9
2018-May-04 06:00S 07°38' E 012°22'2 4.8
2018-May-04 05:29S 07°38' E 012°24'3 4.7
2018-May-04 04:57S 07°37' E 012°26'2 5.0
2018-May-04 04:27S 07°37' E 012°29'2 4.3
2018-May-04 04:00S 07°36' E 012°31'7 1.7
2018-May-03 23:57S 07°42' E 012°27'2 4.7
2018-May-03 23:30S 07°42' E 012°25'2 4.5
2018-May-03 23:00S 07°42' E 012°22'3 4.9
2018-May-03 22:28S 07°42' E 012°20'2 4.7
2018-May-03 21:59S 07°42' E 012°17'2 4.6
2018-May-03 21:30S 07°42' E 012°15'2 4.6
2018-May-03 21:00S 07°41' E 012°13'3 5.6
2018-May-03 20:29S 07°40' E 012°10'3 5.3
2018-May-03 19:59S 07°42' E 012°08'6 4.7
2018-May-03 18:41S 07°45' E 012°03'1 5.0
2018-May-03 18:30S 07°46' E 012°03'2 4.7
2018-May-03 18:00S 07°48' E 012°01'57 2.9
2018-May-02 22:26S 07°43' E 011°04'  

Dump ship's entire track history